sensor_id;sensor_type;location;lat;lon;timestamp;pressure;altitude;pressure_sealevel;temperature;humidity
26487;BME280;14425;56.136;40.360;2023-01-13T00:01:05;57093.69;;;-145.77;100.00
26487;BME280;14425;56.136;40.360;2023-01-13T00:03:31;57093.69;;;-145.77;100.00
26487;BME280;14425;56.136;40.360;2023-01-13T00:05:57;57093.69;;;-145.77;100.00
26487;BME280;14425;56.136;40.360;2023-01-13T00:08:23;57093.69;;;-145.77;100.00
26487;BME280;14425;56.136;40.360;2023-01-13T00:10:48;57093.69;;;-145.77;100.00
26487;BME280;14425;56.136;40.360;2023-01-13T00:13:13;57093.69;;;-145.77;100.00
26487;BME280;14425;56.136;40.360;2023-01-13T00:15:39;57093.69;;;-145.77;100.00
26487;BME280;14425;56.136;40.360;2023-01-13T00:18:04;57093.69;;;-145.77;100.00
26487;BME280;14425;56.136;40.360;2023-01-13T00:20:29;57093.69;;;-145.77;100.00
26487;BME280;14425;56.136;40.360;2023-01-13T00:22:55;57093.69;;;-145.77;100.00
26487;BME280;14425;56.136;40.360;2023-01-13T00:25:21;57093.69;;;-145.77;100.00
26487;BME280;14425;56.136;40.360;2023-01-13T00:27:46;57093.69;;;-145.77;100.00
26487;BME280;14425;56.136;40.360;2023-01-13T00:30:11;57093.69;;;-145.77;100.00
26487;BME280;14425;56.136;40.360;2023-01-13T00:32:37;57093.69;;;-145.77;100.00
26487;BME280;14425;56.136;40.360;2023-01-13T00:35:02;57093.69;;;-145.77;100.00
26487;BME280;14425;56.136;40.360;2023-01-13T00:37:28;57093.69;;;-145.77;100.00
26487;BME280;14425;56.136;40.360;2023-01-13T00:39:54;57093.69;;;-145.77;100.00
26487;BME280;14425;56.136;40.360;2023-01-13T00:42:19;57093.69;;;-145.77;100.00
26487;BME280;14425;56.136;40.360;2023-01-13T00:45:03;57093.69;;;-145.77;100.00
26487;BME280;14425;56.136;40.360;2023-01-13T00:47:29;57093.69;;;-145.77;100.00
26487;BME280;14425;56.136;40.360;2023-01-13T00:49:55;57093.69;;;-145.77;100.00
26487;BME280;14425;56.136;40.360;2023-01-13T00:52:21;57093.69;;;-145.77;100.00
26487;BME280;14425;56.136;40.360;2023-01-13T00:54:46;57093.69;;;-145.77;100.00
26487;BME280;14425;56.136;40.360;2023-01-13T00:57:11;57093.69;;;-145.77;100.00
26487;BME280;14425;56.136;40.360;2023-01-13T00:59:37;57093.69;;;-145.77;100.00
26487;BME280;14425;56.136;40.360;2023-01-13T01:02:02;57093.69;;;-145.77;100.00
26487;BME280;14425;56.136;40.360;2023-01-13T01:04:27;57093.69;;;-145.77;100.00
26487;BME280;14425;56.136;40.360;2023-01-13T01:06:53;57093.69;;;-145.77;100.00
26487;BME280;14425;56.136;40.360;2023-01-13T01:09:18;57093.69;;;-145.77;100.00
26487;BME280;14425;56.136;40.360;2023-01-13T01:11:43;57093.69;;;-145.77;100.00
26487;BME280;14425;56.136;40.360;2023-01-13T01:14:10;57093.69;;;-145.77;100.00
26487;BME280;14425;56.136;40.360;2023-01-13T01:16:36;57093.69;;;-145.77;100.00
26487;BME280;14425;56.136;40.360;2023-01-13T01:19:02;57093.69;;;-145.77;100.00
26487;BME280;14425;56.136;40.360;2023-01-13T01:21:27;57093.69;;;-145.77;100.00
26487;BME280;14425;56.136;40.360;2023-01-13T01:23:53;57093.69;;;-145.77;100.00
26487;BME280;14425;56.136;40.360;2023-01-13T01:26:19;57093.69;;;-145.77;100.00
26487;BME280;14425;56.136;40.360;2023-01-13T01:28:45;57093.69;;;-145.77;100.00
26487;BME280;14425;56.136;40.360;2023-01-13T01:31:12;57093.69;;;-145.77;100.00
26487;BME280;14425;56.136;40.360;2023-01-13T01:33:38;57093.69;;;-145.77;100.00
26487;BME280;14425;56.136;40.360;2023-01-13T01:36:05;57093.69;;;-145.77;100.00
26487;BME280;14425;56.136;40.360;2023-01-13T01:38:30;57093.69;;;-145.77;100.00
26487;BME280;14425;56.136;40.360;2023-01-13T01:40:55;57093.69;;;-145.77;100.00
26487;BME280;14425;56.136;40.360;2023-01-13T01:43:22;57093.69;;;-145.77;100.00
26487;BME280;14425;56.136;40.360;2023-01-13T01:46:05;57093.69;;;-145.77;100.00
26487;BME280;14425;56.136;40.360;2023-01-13T01:48:33;57093.69;;;-145.77;100.00
26487;BME280;14425;56.136;40.360;2023-01-13T01:50:59;57093.69;;;-145.77;100.00
26487;BME280;14425;56.136;40.360;2023-01-13T01:53:25;57093.69;;;-145.77;100.00
26487;BME280;14425;56.136;40.360;2023-01-13T01:55:52;57093.69;;;-145.77;100.00
26487;BME280;14425;56.136;40.360;2023-01-13T01:58:24;57093.69;;;-145.77;100.00
26487;BME280;14425;56.136;40.360;2023-01-13T02:00:52;57093.69;;;-145.77;100.00
26487;BME280;14425;56.136;40.360;2023-01-13T02:03:17;57093.69;;;-145.77;100.00
26487;BME280;14425;56.136;40.360;2023-01-13T02:05:43;57093.69;;;-145.77;100.00
26487;BME280;14425;56.136;40.360;2023-01-13T02:08:09;57093.69;;;-145.77;100.00
26487;BME280;14425;56.136;40.360;2023-01-13T02:10:35;57093.69;;;-145.77;100.00
26487;BME280;14425;56.136;40.360;2023-01-13T02:13:02;57093.69;;;-145.77;100.00
26487;BME280;14425;56.136;40.360;2023-01-13T02:30:25;57093.69;;;-145.77;100.00
26487;BME280;14425;56.136;40.360;2023-01-13T02:35:40;57093.69;;;-145.77;100.00
26487;BME280;14425;56.136;40.360;2023-01-13T02:38:07;57093.69;;;-145.77;100.00
26487;BME280;14425;56.136;40.360;2023-01-13T02:40:49;57093.69;;;-145.77;100.00
26487;BME280;14425;56.136;40.360;2023-01-13T02:43:37;57093.69;;;-145.77;100.00
26487;BME280;14425;56.136;40.360;2023-01-13T02:49:01;57093.69;;;-145.77;100.00
26487;BME280;14425;56.136;40.360;2023-01-13T02:51:28;57093.69;;;-145.77;100.00
26487;BME280;14425;56.136;40.360;2023-01-13T02:53:56;57093.69;;;-145.77;100.00
26487;BME280;14425;56.136;40.360;2023-01-13T02:56:24;57093.69;;;-145.77;100.00
26487;BME280;14425;56.136;40.360;2023-01-13T02:58:50;57093.69;;;-145.77;100.00
26487;BME280;14425;56.136;40.360;2023-01-13T03:01:17;57093.69;;;-145.77;100.00
26487;BME280;14425;56.136;40.360;2023-01-13T03:03:43;57093.69;;;-145.77;100.00
26487;BME280;14425;56.136;40.360;2023-01-13T03:08:53;57093.69;;;-145.77;100.00
26487;BME280;14425;56.136;40.360;2023-01-13T03:11:23;57093.69;;;-145.77;100.00
26487;BME280;14425;56.136;40.360;2023-01-13T03:16:39;57093.69;;;-145.77;100.00
26487;BME280;14425;56.136;40.360;2023-01-13T03:19:56;57093.69;;;-145.77;100.00
26487;BME280;14425;56.136;40.360;2023-01-13T03:22:04;57093.69;;;-145.77;100.00
26487;BME280;14425;56.136;40.360;2023-01-13T03:24:35;57093.69;;;-145.77;100.00
26487;BME280;14425;56.136;40.360;2023-01-13T03:29:48;57093.69;;;-145.77;100.00
26487;BME280;14425;56.136;40.360;2023-01-13T03:34:49;57093.69;;;-145.77;100.00
26487;BME280;14425;56.136;40.360;2023-01-13T03:37:16;57093.69;;;-145.77;100.00
26487;BME280;14425;56.136;40.360;2023-01-13T03:39:46;57093.69;;;-145.77;100.00
26487;BME280;14425;56.136;40.360;2023-01-13T03:42:14;57093.69;;;-145.77;100.00
26487;BME280;14425;56.136;40.360;2023-01-13T03:44:43;57093.69;;;-145.77;100.00
26487;BME280;14425;56.136;40.360;2023-01-13T03:47:21;57093.69;;;-145.77;100.00
26487;BME280;14425;56.136;40.360;2023-01-13T03:49:52;57093.69;;;-145.77;100.00
26487;BME280;14425;56.136;40.360;2023-01-13T03:52:23;57093.69;;;-145.77;100.00
26487;BME280;14425;56.136;40.360;2023-01-13T03:54:52;57093.69;;;-145.77;100.00
26487;BME280;14425;56.136;40.360;2023-01-13T03:57:19;57093.69;;;-145.77;100.00
26487;BME280;14425;56.136;40.360;2023-01-13T03:59:49;57093.69;;;-145.77;100.00
26487;BME280;14425;56.136;40.360;2023-01-13T04:02:18;57093.69;;;-145.77;100.00
26487;BME280;14425;56.136;40.360;2023-01-13T04:12:27;57093.69;;;-145.77;100.00
26487;BME280;14425;56.136;40.360;2023-01-13T04:15:13;57093.69;;;-145.77;100.00
26487;BME280;14425;56.136;40.360;2023-01-13T04:17:39;57093.69;;;-145.77;100.00
26487;BME280;14425;56.136;40.360;2023-01-13T04:20:04;57093.69;;;-145.77;100.00
26487;BME280;14425;56.136;40.360;2023-01-13T04:22:30;57093.69;;;-145.77;100.00
26487;BME280;14425;56.136;40.360;2023-01-13T04:24:55;57093.69;;;-145.77;100.00
26487;BME280;14425;56.136;40.360;2023-01-13T04:27:20;57093.69;;;-145.77;100.00
26487;BME280;14425;56.136;40.360;2023-01-13T04:29:46;57093.69;;;-145.77;100.00
26487;BME280;14425;56.136;40.360;2023-01-13T04:32:11;57093.69;;;-145.77;100.00
26487;BME280;14425;56.136;40.360;2023-01-13T04:34:36;57093.69;;;-145.77;100.00
26487;BME280;14425;56.136;40.360;2023-01-13T04:37:01;57093.69;;;-145.77;100.00
26487;BME280;14425;56.136;40.360;2023-01-13T04:39:27;57093.69;;;-145.77;100.00
26487;BME280;14425;56.136;40.360;2023-01-13T04:41:52;57093.69;;;-145.77;100.00
26487;BME280;14425;56.136;40.360;2023-01-13T04:44:24;57093.69;;;-145.77;100.00
26487;BME280;14425;56.136;40.360;2023-01-13T04:46:50;57093.69;;;-145.77;100.00
26487;BME280;14425;56.136;40.360;2023-01-13T04:49:15;57093.69;;;-145.77;100.00
26487;BME280;14425;56.136;40.360;2023-01-13T04:51:40;57093.69;;;-145.77;100.00
26487;BME280;14425;56.136;40.360;2023-01-13T04:54:06;57093.69;;;-145.77;100.00
26487;BME280;14425;56.136;40.360;2023-01-13T04:56:31;57093.69;;;-145.77;100.00
26487;BME280;14425;56.136;40.360;2023-01-13T04:58:56;57093.69;;;-145.77;100.00
26487;BME280;14425;56.136;40.360;2023-01-13T05:01:22;57093.69;;;-145.77;100.00
26487;BME280;14425;56.136;40.360;2023-01-13T05:03:47;57093.69;;;-145.77;100.00
26487;BME280;14425;56.136;40.360;2023-01-13T05:06:12;57093.69;;;-145.77;100.00
26487;BME280;14425;56.136;40.360;2023-01-13T05:08:38;57093.69;;;-145.77;100.00
26487;BME280;14425;56.136;40.360;2023-01-13T05:11:03;57093.69;;;-145.77;100.00
26487;BME280;14425;56.136;40.360;2023-01-13T05:13:49;57093.69;;;-145.77;100.00
26487;BME280;14425;56.136;40.360;2023-01-13T05:16:33;57093.69;;;-145.77;100.00
26487;BME280;14425;56.136;40.360;2023-01-13T05:19:16;57093.69;;;-145.77;100.00
26487;BME280;14425;56.136;40.360;2023-01-13T05:21:42;57093.69;;;-145.77;100.00
26487;BME280;14425;56.136;40.360;2023-01-13T05:24:26;57093.69;;;-145.77;100.00
26487;BME280;14425;56.136;40.360;2023-01-13T05:27:09;57093.69;;;-145.77;100.00
26487;BME280;14425;56.136;40.360;2023-01-13T05:29:35;57093.69;;;-145.77;100.00
26487;BME280;14425;56.136;40.360;2023-01-13T05:32:00;57093.69;;;-145.77;100.00
26487;BME280;14425;56.136;40.360;2023-01-13T05:34:26;57093.69;;;-145.77;100.00
26487;BME280;14425;56.136;40.360;2023-01-13T05:36:52;57093.69;;;-145.77;100.00
26487;BME280;14425;56.136;40.360;2023-01-13T05:39:17;57093.69;;;-145.77;100.00
26487;BME280;14425;56.136;40.360;2023-01-13T05:41:42;57093.69;;;-145.77;100.00
26487;BME280;14425;56.136;40.360;2023-01-13T05:44:26;57093.69;;;-145.77;100.00
26487;BME280;14425;56.136;40.360;2023-01-13T05:46:51;57093.69;;;-145.77;100.00
26487;BME280;14425;56.136;40.360;2023-01-13T05:49:17;57093.69;;;-145.77;100.00
26487;BME280;14425;56.136;40.360;2023-01-13T05:51:43;57093.69;;;-145.77;100.00
26487;BME280;14425;56.136;40.360;2023-01-13T05:54:08;57093.69;;;-145.77;100.00
26487;BME280;14425;56.136;40.360;2023-01-13T05:56:34;57093.69;;;-145.77;100.00
26487;BME280;14425;56.136;40.360;2023-01-13T05:58:59;57093.69;;;-145.77;100.00
26487;BME280;14425;56.136;40.360;2023-01-13T06:01:24;100359.66;;;-5.35;100.00
26487;BME280;14425;56.136;40.360;2023-01-13T06:03:49;100371.28;;;-5.29;100.00
26487;BME280;14425;56.136;40.360;2023-01-13T06:06:15;100361.13;;;-5.38;100.00
26487;BME280;14425;56.136;40.360;2023-01-13T06:08:40;100352.97;;;-5.28;100.00
26487;BME280;14425;56.136;40.360;2023-01-13T06:11:05;100363.03;;;-5.81;100.00
26487;BME280;14425;56.136;40.360;2023-01-13T06:13:31;100376.63;;;-5.72;100.00
26487;BME280;14425;56.136;40.360;2023-01-13T06:15:56;100389.38;;;-5.70;100.00
26487;BME280;14425;56.136;40.360;2023-01-13T06:18:22;100360.38;;;-5.60;100.00
26487;BME280;14425;56.136;40.360;2023-01-13T06:20:48;100373.09;;;-5.51;100.00
26487;BME280;14425;56.136;40.360;2023-01-13T06:23:13;100363.19;;;-5.49;100.00
26487;BME280;14425;56.136;40.360;2023-01-13T06:28:10;100359.44;;;-5.53;100.00
26487;BME280;14425;56.136;40.360;2023-01-13T06:30:37;100357.88;;;-5.36;100.00
26487;BME280;14425;56.136;40.360;2023-01-13T06:33:04;100364.75;;;-5.43;100.00
26487;BME280;14425;56.136;40.360;2023-01-13T06:35:32;100361.78;;;-5.54;100.00
26487;BME280;14425;56.136;40.360;2023-01-13T06:38:00;100352.97;;;-5.51;100.00
26487;BME280;14425;56.136;40.360;2023-01-13T06:40:26;100339.31;;;-5.53;100.00
26487;BME280;14425;56.136;40.360;2023-01-13T06:42:52;100343.47;;;-5.53;100.00
26487;BME280;14425;56.136;40.360;2023-01-13T06:45:36;100348.06;;;-5.42;100.00
26487;BME280;14425;56.136;40.360;2023-01-13T06:48:02;100347.16;;;-5.43;100.00
26487;BME280;14425;56.136;40.360;2023-01-13T06:50:27;100371.63;;;-5.49;100.00
26487;BME280;14425;56.136;40.360;2023-01-13T06:52:53;100365.91;;;-5.55;100.00
26487;BME280;14425;56.136;40.360;2023-01-13T06:55:18;100373.72;;;-5.45;100.00
26487;BME280;14425;56.136;40.360;2023-01-13T06:57:51;100381.25;;;-5.38;100.00
26487;BME280;14425;56.136;40.360;2023-01-13T07:00:16;100398.78;;;-5.30;100.00
26487;BME280;14425;56.136;40.360;2023-01-13T07:02:42;100397.16;;;-5.07;100.00
26487;BME280;14425;56.136;40.360;2023-01-13T07:05:07;100397.91;;;-5.31;100.00
26487;BME280;14425;56.136;40.360;2023-01-13T07:07:32;100397.38;;;-5.12;100.00
26487;BME280;14425;56.136;40.360;2023-01-13T07:09:58;100403.25;;;-5.05;100.00
26487;BME280;14425;56.136;40.360;2023-01-13T07:12:23;100408.44;;;-5.03;100.00
26487;BME280;14425;56.136;40.360;2023-01-13T07:14:49;100386.09;;;-4.93;100.00
26487;BME280;14425;56.136;40.360;2023-01-13T07:17:33;100385.38;;;-4.60;100.00
26487;BME280;14425;56.136;40.360;2023-01-13T07:19:58;100387.81;;;-4.53;100.00
26487;BME280;14425;56.136;40.360;2023-01-13T07:22:23;100396.78;;;-4.87;100.00
26487;BME280;14425;56.136;40.360;2023-01-13T07:24:49;100405.53;;;-5.22;100.00
26487;BME280;14425;56.136;40.360;2023-01-13T07:27:14;100410.66;;;-5.13;100.00
26487;BME280;14425;56.136;40.360;2023-01-13T07:29:39;100399.28;;;-5.49;100.00
26487;BME280;14425;56.136;40.360;2023-01-13T07:32:05;100453.63;;;-5.42;100.00
26487;BME280;14425;56.136;40.360;2023-01-13T07:34:31;100394.28;;;-5.10;100.00
26487;BME280;14425;56.136;40.360;2023-01-13T07:36:57;100412.41;;;-5.05;100.00
26487;BME280;14425;56.136;40.360;2023-01-13T07:39:22;100393.75;;;-5.07;100.00
26487;BME280;14425;56.136;40.360;2023-01-13T07:41:48;100405.47;;;-5.15;100.00
26487;BME280;14425;56.136;40.360;2023-01-13T07:44:31;100405.03;;;-5.04;100.00
26487;BME280;14425;56.136;40.360;2023-01-13T07:46:57;100400.22;;;-4.86;100.00
26487;BME280;14425;56.136;40.360;2023-01-13T07:51:54;100387.38;;;-5.43;100.00
26487;BME280;14425;56.136;40.360;2023-01-13T07:54:19;100425.81;;;-5.44;100.00
26487;BME280;14425;56.136;40.360;2023-01-13T07:56:45;100361.16;;;-5.45;100.00
26487;BME280;14425;56.136;40.360;2023-01-13T07:59:10;100389.84;;;-4.96;100.00
26487;BME280;14425;56.136;40.360;2023-01-13T08:01:35;100390.38;;;-4.92;100.00
26487;BME280;14425;56.136;40.360;2023-01-13T08:04:01;100394.69;;;-4.91;100.00
26487;BME280;14425;56.136;40.360;2023-01-13T08:06:26;100385.75;;;-4.96;100.00
26487;BME280;14425;56.136;40.360;2023-01-13T08:08:52;100378.69;;;-4.75;100.00
26487;BME280;14425;56.136;40.360;2023-01-13T08:11:17;100406.91;;;-4.94;100.00
26487;BME280;14425;56.136;40.360;2023-01-13T08:13:43;100374.34;;;-5.08;100.00
26487;BME280;14425;56.136;40.360;2023-01-13T08:16:09;100418.63;;;-5.41;100.00
26487;BME280;14425;56.136;40.360;2023-01-13T08:18:34;100377.09;;;-5.14;100.00
26487;BME280;14425;56.136;40.360;2023-01-13T08:21:01;100376.41;;;-4.97;100.00
26487;BME280;14425;56.136;40.360;2023-01-13T08:23:26;100389.06;;;-5.04;100.00
26487;BME280;14425;56.136;40.360;2023-01-13T08:25:52;100386.75;;;-5.10;100.00
26487;BME280;14425;56.136;40.360;2023-01-13T08:28:17;100382.31;;;-4.96;100.00
26487;BME280;14425;56.136;40.360;2023-01-13T08:30:43;100385.25;;;-5.01;100.00
26487;BME280;14425;56.136;40.360;2023-01-13T08:33:09;100377.06;;;-4.91;100.00
26487;BME280;14425;56.136;40.360;2023-01-13T08:35:37;100385.47;;;-5.06;100.00
26487;BME280;14425;56.136;40.360;2023-01-13T08:38:03;100386.13;;;-5.00;100.00
26487;BME280;14425;56.136;40.360;2023-01-13T08:40:29;100401.66;;;-4.88;100.00
26487;BME280;14425;56.136;40.360;2023-01-13T08:42:55;100402.31;;;-4.98;100.00
26487;BME280;14425;56.136;40.360;2023-01-13T08:45:20;100387.84;;;-4.92;100.00
26487;BME280;14425;56.136;40.360;2023-01-13T08:47:46;100395.25;;;-5.16;100.00
26487;BME280;14425;56.136;40.360;2023-01-13T08:50:11;100392.63;;;-5.02;100.00
26487;BME280;14425;56.136;40.360;2023-01-13T08:52:37;100392.38;;;-4.96;100.00
26487;BME280;14425;56.136;40.360;2023-01-13T08:55:02;100377.06;;;-4.91;100.00
26487;BME280;14425;56.136;40.360;2023-01-13T08:57:28;100379.00;;;-5.04;100.00
26487;BME280;14425;56.136;40.360;2023-01-13T08:59:54;100368.06;;;-4.89;100.00
26487;BME280;14425;56.136;40.360;2023-01-13T09:02:20;100371.50;;;-4.72;100.00
26487;BME280;14425;56.136;40.360;2023-01-13T09:04:45;100388.97;;;-4.97;100.00
26487;BME280;14425;56.136;40.360;2023-01-13T09:07:11;100377.94;;;-5.06;100.00
26487;BME280;14425;56.136;40.360;2023-01-13T09:09:37;100383.94;;;-5.36;100.00
26487;BME280;14425;56.136;40.360;2023-01-13T09:12:02;100386.31;;;-5.22;100.00
26487;BME280;14425;56.136;40.360;2023-01-13T09:14:47;100375.53;;;-4.82;99.73
26487;BME280;14425;56.136;40.360;2023-01-13T09:17:12;100368.09;;;-5.12;100.00
26487;BME280;14425;56.136;40.360;2023-01-13T09:19:38;100390.38;;;-5.38;100.00
26487;BME280;14425;56.136;40.360;2023-01-13T09:22:04;100371.50;;;-4.72;100.00
26487;BME280;14425;56.136;40.360;2023-01-13T09:24:29;100407.84;;;-4.77;98.11
26487;BME280;14425;56.136;40.360;2023-01-13T09:26:55;100383.09;;;-4.66;96.86
26487;BME280;14425;56.136;40.360;2023-01-13T09:29:20;100378.97;;;-4.33;94.83
26487;BME280;14425;56.136;40.360;2023-01-13T09:31:45;100375.53;;;-4.18;91.27
26487;BME280;14425;56.136;40.360;2023-01-13T09:34:18;100373.34;;;-4.47;92.16
26487;BME280;14425;56.136;40.360;2023-01-13T09:37:02;100366.47;;;-4.56;92.88
26487;BME280;14425;56.136;40.360;2023-01-13T09:39:28;100367.66;;;-4.69;93.21
26487;BME280;14425;56.136;40.360;2023-01-13T09:41:54;100366.28;;;-4.74;93.92
26487;BME280;14425;56.136;40.360;2023-01-13T09:47:10;100349.06;;;-4.62;94.29
26487;BME280;14425;56.136;40.360;2023-01-13T09:49:39;100342.03;;;-4.57;92.68
26487;BME280;14425;56.136;40.360;2023-01-13T09:54:38;100340.88;;;-4.68;93.39
26487;BME280;14425;56.136;40.360;2023-01-13T09:57:12;100347.63;;;-4.76;94.52
26487;BME280;14425;56.136;40.360;2023-01-13T09:59:38;100335.75;;;-4.77;94.35
26487;BME280;14425;56.136;40.360;2023-01-13T10:05:04;100344.53;;;-4.57;93.32
26487;BME280;14425;56.136;40.360;2023-01-13T10:07:31;100333.16;;;-4.38;92.56
26487;BME280;14425;56.136;40.360;2023-01-13T10:09:58;100341.22;;;-4.33;90.62
26487;BME280;14425;56.136;40.360;2023-01-13T10:12:25;100337.66;;;-4.11;89.29
26487;BME280;14425;56.136;40.360;2023-01-13T10:15:13;100343.41;;;-4.36;88.82
26487;BME280;14425;56.136;40.360;2023-01-13T10:17:40;100345.22;;;-4.11;86.33
26487;BME280;14425;56.136;40.360;2023-01-13T10:20:21;100339.31;;;-3.86;85.38
26487;BME280;14425;56.136;40.360;2023-01-13T10:28:17;100328.25;;;-4.20;86.05
26487;BME280;14425;56.136;40.360;2023-01-13T10:30:44;100320.06;;;-4.27;85.89
26487;BME280;14425;56.136;40.360;2023-01-13T10:35:52;100330.00;;;-4.03;83.39
26487;BME280;14425;56.136;40.360;2023-01-13T10:38:19;100334.22;;;-4.68;86.40
26487;BME280;14425;56.136;40.360;2023-01-13T10:40:55;100335.41;;;-4.32;85.36
26487;BME280;14425;56.136;40.360;2023-01-13T10:43:21;100334.88;;;-4.46;86.21
26487;BME280;14425;56.136;40.360;2023-01-13T10:48:22;100329.41;;;-4.25;86.30
26487;BME280;14425;56.136;40.360;2023-01-13T10:50:55;100333.94;;;-4.30;84.59
26487;BME280;14425;56.136;40.360;2023-01-13T10:53:24;100309.44;;;-3.99;83.58
26487;BME280;14425;56.136;40.360;2023-01-13T10:56:00;100312.34;;;-4.28;84.74
26487;BME280;14425;56.136;40.360;2023-01-13T10:58:26;100313.09;;;-4.04;83.58
26487;BME280;14425;56.136;40.360;2023-01-13T11:00:58;100317.97;;;-4.06;83.90
26487;BME280;14425;56.136;40.360;2023-01-13T11:03:24;100314.06;;;-4.52;86.32
26487;BME280;14425;56.136;40.360;2023-01-13T11:05:58;100309.09;;;-4.27;86.62
26487;BME280;14425;56.136;40.360;2023-01-13T11:08:28;100334.59;;;-4.24;85.36
26487;BME280;14425;56.136;40.360;2023-01-13T11:10:55;100315.31;;;-4.07;85.59
26487;BME280;14425;56.136;40.360;2023-01-13T11:13:31;100312.91;;;-4.15;85.72
26487;BME280;14425;56.136;40.360;2023-01-13T11:20:51;100322.84;;;-4.64;87.19
26487;BME280;14425;56.136;40.360;2023-01-13T11:23:21;100318.00;;;-4.62;88.43
26487;BME280;14425;56.136;40.360;2023-01-13T11:25:50;100325.59;;;-4.38;88.06
26487;BME280;14425;56.136;40.360;2023-01-13T11:33:44;100318.88;;;-4.46;86.23
26487;BME280;14425;56.136;40.360;2023-01-13T11:36:16;100323.31;;;-4.28;86.97
26487;BME280;14425;56.136;40.360;2023-01-13T11:38:43;100331.13;;;-4.33;86.34
26487;BME280;14425;56.136;40.360;2023-01-13T11:43:46;100329.44;;;-4.17;84.88
26487;BME280;14425;56.136;40.360;2023-01-13T11:46:15;100318.84;;;-4.30;86.22
26487;BME280;14425;56.136;40.360;2023-01-13T11:48:41;100329.88;;;-4.21;86.57
26487;BME280;14425;56.136;40.360;2023-01-13T11:56:19;100311.09;;;-4.16;86.99
26487;BME280;14425;56.136;40.360;2023-01-13T12:03:57;100312.03;;;-4.47;89.12
26487;BME280;14425;56.136;40.360;2023-01-13T12:06:33;100312.47;;;-4.11;87.79
26487;BME280;14425;56.136;40.360;2023-01-13T12:16:50;100325.25;;;-4.25;87.75
26487;BME280;14425;56.136;40.360;2023-01-13T12:19:23;100310.00;;;-3.77;85.70
26487;BME280;14425;56.136;40.360;2023-01-13T12:24:36;100334.22;;;-4.52;89.77
26487;BME280;14425;56.136;40.360;2023-01-13T12:27:11;100331.13;;;-4.49;90.20
26487;BME280;14425;56.136;40.360;2023-01-13T12:29:38;100328.19;;;-4.45;90.15
26487;BME280;14425;56.136;40.360;2023-01-13T12:32:04;100334.75;;;-4.38;90.47
26487;BME280;14425;56.136;40.360;2023-01-13T12:34:52;100333.94;;;-4.14;89.26
26487;BME280;14425;56.136;40.360;2023-01-13T12:37:26;100345.09;;;-4.76;90.18
26487;BME280;14425;56.136;40.360;2023-01-13T12:40:10;100342.50;;;-4.53;91.59
26487;BME280;14425;56.136;40.360;2023-01-13T12:42:45;100345.38;;;-4.25;90.75
26487;BME280;14425;56.136;40.360;2023-01-13T12:45:33;100345.59;;;-4.39;90.28
26487;BME280;14425;56.136;40.360;2023-01-13T12:47:58;100359.16;;;-4.62;91.20
26487;BME280;14425;56.136;40.360;2023-01-13T12:52:49;100382.94;;;-4.67;92.31
26487;BME280;14425;56.136;40.360;2023-01-13T12:55:34;100357.75;;;-4.67;93.00
26487;BME280;14425;56.136;40.360;2023-01-13T13:08:13;100376.94;;;-4.76;95.77
26487;BME280;14425;56.136;40.360;2023-01-13T13:13:46;100357.75;;;-4.67;94.34
26487;BME280;14425;56.136;40.360;2023-01-13T13:16:46;100371.94;;;-4.84;97.26
26487;BME280;14425;56.136;40.360;2023-01-13T13:24:29;100402.69;;;-4.63;95.13
26487;BME280;14425;56.136;40.360;2023-01-13T13:26:54;100412.66;;;-4.24;92.63
26487;BME280;14425;56.136;40.360;2023-01-13T13:29:21;100391.66;;;-4.56;92.71
26487;BME280;14425;56.136;40.360;2023-01-13T13:37:08;57093.69;;;-145.77;100.00
26487;BME280;14425;56.136;40.360;2023-01-13T13:39:39;57093.69;;;-145.77;100.00
26487;BME280;14425;56.136;40.360;2023-01-13T13:42:24;57093.69;;;-145.77;100.00
26487;BME280;14425;56.136;40.360;2023-01-13T13:45:16;57093.69;;;-145.77;100.00
26487;BME280;14425;56.136;40.360;2023-01-13T13:48:16;57093.69;;;-145.77;100.00
26487;BME280;14425;56.136;40.360;2023-01-13T13:50:45;57093.69;;;-145.77;100.00
26487;BME280;14425;56.136;40.360;2023-01-13T13:53:11;57093.69;;;-145.77;100.00
26487;BME280;14425;56.136;40.360;2023-01-13T13:55:36;57093.69;;;-145.77;100.00
26487;BME280;14425;56.136;40.360;2023-01-13T13:58:02;57093.69;;;-145.77;100.00
26487;BME280;14425;56.136;40.360;2023-01-13T14:00:34;57093.69;;;-145.77;100.00
26487;BME280;14425;56.136;40.360;2023-01-13T14:03:06;57093.69;;;-145.77;100.00
26487;BME280;14425;56.136;40.360;2023-01-13T14:05:51;57093.69;;;-145.77;100.00
26487;BME280;14425;56.136;40.360;2023-01-13T14:08:17;57093.69;;;-145.77;100.00
26487;BME280;14425;56.136;40.360;2023-01-13T14:10:43;57093.69;;;-145.77;100.00
26487;BME280;14425;56.136;40.360;2023-01-13T14:13:29;57093.69;;;-145.77;100.00
26487;BME280;14425;56.136;40.360;2023-01-13T14:16:01;57093.69;;;-145.77;100.00
26487;BME280;14425;56.136;40.360;2023-01-13T14:18:28;57093.69;;;-145.77;100.00
26487;BME280;14425;56.136;40.360;2023-01-13T14:20:54;57093.69;;;-145.77;100.00
26487;BME280;14425;56.136;40.360;2023-01-13T14:23:24;57093.69;;;-145.77;100.00
26487;BME280;14425;56.136;40.360;2023-01-13T14:25:50;57093.69;;;-145.77;100.00
26487;BME280;14425;56.136;40.360;2023-01-13T14:28:20;57093.69;;;-145.77;100.00
26487;BME280;14425;56.136;40.360;2023-01-13T14:30:46;57093.69;;;-145.77;100.00
26487;BME280;14425;56.136;40.360;2023-01-13T14:33:18;57093.69;;;-145.77;100.00
26487;BME280;14425;56.136;40.360;2023-01-13T14:38:29;57093.69;;;-145.77;100.00
26487;BME280;14425;56.136;40.360;2023-01-13T14:40:54;57093.69;;;-145.77;100.00